Flight Track Log - Related Links

Times and Time Zones

All times are in EDT time to prevent confusion due to time zone crossing. See the UAL4695 flight status page for this flight to view local times or setup timezone preferences in your user account.

Time Position Orientation Groundspeed Altitude Reporting Facility
EDT Latitude Longitude Course Direction KTS MPH feet Rate Location/Type
Fri 07:21:29 PM 37.5333 -77.3167 38° Northeast 191 220 1,200  Level Potomac TRACON
Fri 07:22:29 PM 37.5833 -77.2833 28° Northeast 246 283 3,700 2,750 Climbing Potomac TRACON
Fri 07:23:29 PM 37.6500 -77.2333 31° Northeast 273 314 6,700 3,000 Climbing Potomac TRACON
Fri 07:24:05 PM 37.6683 -77.1947 59° Northeast 275 316 8,500 1,485 Climbing Washington Center
Fri 07:25:00 PM 37.7791 -77.0209 38° Northeast  Level FlightAware Approximate
Fri 07:25:06 PM 37.7297 -77.1253 42° Northeast 280 322 9,100  Level Washington Center
Fri 07:26:00 PM 37.8364 -76.9636 38° Northeast  Level FlightAware Approximate
Fri 07:26:06 PM 37.7867 -77.0581 43° Northeast 295 339 11,000  Level Washington Center
Fri 07:27:06 PM 37.8586 -76.9725 43° Northeast 324 373 12,500 1,736 Climbing Washington Center
Fri 07:28:07 PM 37.9369 -76.8819 42° Northeast 353 406 14,500 1,537 Climbing Washington Center
Fri 07:29:07 PM 38.0150 -76.7778 46° Northeast 379 436 15,600 1,932 Climbing Washington Center
Fri 07:30:05 PM 38.0911 -76.6733 47° Northeast 399 459 18,300 2,521 Climbing Washington Center
Fri 07:31:06 PM 38.1631 -76.5742 47° Northeast 394 453 20,600 2,016 Climbing Washington Center
Fri 07:32:07 PM 38.2367 -76.4694 48° Northeast 389 448 22,400 1,866 Climbing Washington Center
Fri 07:33:05 PM 38.3353 -76.3911 32° Northeast 361 415 24,300 1,311 Climbing Washington Center
Fri 07:34:06 PM 38.4397 -76.3764 North 361 415 25,000 347 Climbing Washington Center
Fri 07:35:06 PM 38.5397 -76.3828 357° North 353 406 25,000  Level Washington Center
Fri 07:36:06 PM 38.6292 -76.4128 345° North 341 392 25,000  Level Washington Center
Fri 07:37:07 PM 38.7228 -76.4431 346° North 341 392 25,000  Level Washington Center
Fri 07:38:05 PM 38.8142 -76.4761 344° North 335 386 25,000  Level Washington Center
Fri 07:39:05 PM 38.9078 -76.5067 346° North 341 392 25,000  Level Washington Center
Fri 07:40:06 PM 38.9997 -76.4597 22° Northeast 330 380 25,000  Level Washington Center
Fri 07:41:06 PM 39.0756 -76.3564 47° Northeast 358 412 25,000 -347 Level Washington Center
Fri 07:42:07 PM 39.1511 -76.2500 47° Northeast 369 425 24,300 -496 Descending Washington Center
Fri 07:43:07 PM 39.2350 -76.1436 44° Northeast 392 451 24,000 -153 Descending Washington Center
Fri 07:44:05 PM 39.3189 -76.0394 44° Northeast 407 468 24,000  Level Washington Center
Fri 07:45:05 PM 39.4111 -75.9272 43° Northeast 426 490 24,000  Level Washington Center
Fri 07:46:06 PM 39.4925 -75.8283 43° Northeast 431 496 24,000  Level Washington Center
Fri 07:47:07 PM 39.5844 -75.7208 42° Northeast 444 511 24,000  Level Washington Center
Fri 07:48:07 PM 39.6697 -75.6186 43° Northeast 434 499 24,000 -966 Level Washington Center
Fri 07:49:05 PM 39.7553 -75.5186 42° Northeast 423 487 22,100 -2,269 Descending Washington Center
Fri 07:50:06 PM 39.8364 -75.4211 43° Northeast 408 470 19,500 -2,410 Descending Washington Center
Fri 07:51:07 PM 39.9133 -75.3264 43° Northeast 393 452 17,200 -2,420 Descending Washington Center
Fri 07:52:05 PM 39.9858 -75.2367 43° Northeast 372 428 14,700 -2,542 Descending Washington Center
Fri 07:53:05 PM 40.0586 -75.1497 42° Northeast 359 413 12,200 -1,866 Descending Washington Center
Fri 07:54:04 PM 40.1333 -75.0667 40° Northeast 334 384 11,000 -1,261 Descending New York TRACON
Fri 07:55:04 PM 40.2000 -74.9833 44° Northeast 300 345 9,700 -1,400 Descending New York TRACON
Fri 07:56:04 PM 40.2500 -74.9167 45° Northeast 277 319 8,200 -850 Descending New York TRACON
Fri 07:57:04 PM 40.3000 -74.8500 45° Northeast 267 307 8,000 -650 Descending New York TRACON
Fri 07:58:04 PM 40.3500 -74.7667 52° Northeast 260 299 6,900 -1,000 Descending New York TRACON
Fri 07:59:04 PM 40.4000 -74.7000 45° Northeast 259 298 6,000 -450 Descending New York TRACON
Fri 08:00:04 PM 40.4667 -74.6667 21° North 262 302 6,000  Level New York TRACON
Fri 08:01:04 PM 40.5333 -74.6333 21° North 249 287 6,000  Level New York TRACON
Fri 08:02:10 PM 40.6000 -74.6167 11° North 262 302 6,000  Level New York TRACON
Fri 08:03:10 PM 40.6833 -74.6000 North 267 307 6,000 -158 Level New York TRACON
Fri 08:04:04 PM 40.7333 -74.5500 37° Northeast 259 298 5,700 -526 Descending New York TRACON
Fri 08:05:04 PM 40.8000 -74.5167 21° North 252 290 5,000 -350 Descending New York TRACON
Fri 08:06:04 PM 40.8667 -74.4667 30° Northeast 259 298 5,000  Level New York TRACON
Fri 08:07:04 PM 40.9000 -74.4000 57° Northeast 252 290 5,000 -250 Level New York TRACON
Fri 08:08:04 PM 40.9167 -74.3000 78° East 245 282 4,500 -500 Descending New York TRACON
Fri 08:09:04 PM 40.9167 -74.2333 90° East 216 249 4,000 -238 Descending New York TRACON
Fri 08:10:10 PM 40.9167 -74.1500 90° East 215 247 4,000 -429 Level New York TRACON
Fri 08:11:10 PM 40.8667 -74.1000 143° Southeast 216 249 3,100 -650 Descending New York TRACON
Fri 08:12:10 PM 40.8167 -74.0833 166° South 206 237 2,700 -750 Descending New York TRACON
Fri 08:13:10 PM 40.7667 -74.1167 207° Southwest 200 230 1,600 -1,100 Descending New York TRACON

Login

Don't have an account? Register now (free) for customized features, flight alerts, and more!